Orange City, IA

6:28 PM CDT on April 21, 2015 (GMT -0500)
Orange City Municipal | | Change Station
CLOSE
Current Station
Airport
Location: Orange City,
Elevation: 1414 ft
Nearby Weather Stations

Elev 1414 ft 42.99 °N, 96.06 °W | Updated 13 minutes ago

Scattered Clouds
Scattered Clouds
48 °F
Feels Like 48 °F
N
23
Wind Variable Wind from North
Gusts 30 mph

Today
High -- | Low -- °F
--% Chance of Precip.
Yesterday
High -- | Low -- °F
Precip. -- in
6:33 AM 8:13 PM
Waxing Crescent, 13% visible
Pressure 29.80 in
Visibility 10.0 miles
Clouds Scattered Clouds 8000 ft
Dew Point 21 °F
Humidity 34%
Rainfall 0.00 in
Snow Depth Not available.
UV 1 out of 12
Pollen 9.40 out of 12
Air Quality Not available.
Flu Activity Local Activity
METAR KORC 212315Z AUTO 35020G26KT 10SM SCT080 09/M06 A2980 RMK AO2

More Conditions Fewer Conditions

Pressure 29.80 in
Visibility 10.0 miles
Clouds Scattered Clouds 8000 ft
Dew Point 21 °F
Humidity 34%
Rainfall 0.00 in
Snow Depth Not available.
UV 1 out of 12
Pollen 9.40 out of 12
Air Quality Not available.
Flu Activity Local Activity
METAR KORC 212315Z AUTO 35020G26KT 10SM SCT080 09/M06 A2980 RMK AO2

More Conditions Fewer Conditions

10-Day Weather Forecast

Almanac

Astronomy

Apr. 21, 2015 Rise Set
Actual Time
Civil Twilight
Nautical Twilight
Astronomical Twilight
Moon
Length of Visible Light
Length of Day
Tomorrow will be .
, % of the Moon is Illuminated

Today's Extremes

State Highs State Lows

Community

WunderPhotos

Upload Photos

1,815,579 photos uploaded!

WunderBlogs® & News

Nearby

Air Quality

  Air Quality AQ Index Pollutant
Not available.

Snow Depth

Station Depth Elevation

Earthquake Activity

City Distance Mag. Time & Date
Minimum magnitude displayed is 2.5.

Coastal Water Temperatures

Place Temperature

Stations

Nearby Weather Stations

Station Location Temp. Windchill Dew Point Humidity Wind Precip. Elev Updated Type